Time;durP1;ratioP1;P1;durP2;ratioP2;P2;SDS_P1;SDS_P2;PMS_P1;PMS_P2;Temp;Humidity;BMP_temperature;BMP_pressure;BME280_temperature;BME280_humidity;BME280_pressure;Samples;Min_cycle;Max_cycle;Signal;HPM_P1;HPM_P2
2023/05/30 00:01:35;;;;;;;20.80;2.83;;;;;;;10.93;100.00;102122.19;5023442;28;20088;-75
2023/05/30 00:04:01;;;;;;;13.40;2.50;;;;;;;10.95;100.00;102112.28;5016400;28;20064;-75
2023/05/30 00:06:28;;;;;;;11.45;3.60;;;;;;;10.88;100.00;102119.75;5017470;28;20045;-74
2023/05/30 00:08:55;;;;;;;14.77;4.10;;;;;;;10.89;100.00;102121.34;5015564;28;20054;-75
2023/05/30 00:11:23;;;;;;;13.60;2.55;;;;;;;10.90;100.00;102123.75;5021612;28;20049;-75
2023/05/30 00:13:50;;;;;;;16.30;2.35;;;;;;;10.78;100.00;102123.25;5018654;28;20149;-74
2023/05/30 00:16:19;;;;;;;19.58;5.07;;;;;;;10.72;100.00;102127.56;5021610;28;20085;-75
2023/05/30 00:18:46;;;;;;;16.80;3.17;;;;;;;10.63;100.00;102135.47;5025683;28;20083;-74
2023/05/30 00:21:14;;;;;;;13.80;3.22;;;;;;;10.57;100.00;102129.44;5018736;28;20057;-76
2023/05/30 00:23:40;;;;;;;12.57;2.60;;;;;;;10.56;100.00;102133.41;5011685;28;20153;-76
2023/05/30 00:26:09;;;;;;;20.85;3.85;;;;;;;10.52;100.00;102126.22;5021804;28;20042;-73
2023/05/30 00:28:36;;;;;;;14.27;2.35;;;;;;;10.55;100.00;102140.16;5015607;28;20062;-70
2023/05/30 00:31:04;;;;;;;20.00;3.58;;;;;;;10.52;100.00;102138.13;5026895;28;20072;-72
2023/05/30 00:33:31;;;;;;;18.85;2.53;;;;;;;10.47;100.00;102138.50;5016620;28;20137;-73
2023/05/30 00:35:58;;;;;;;15.98;2.58;;;;;;;10.45;100.00;102143.63;5003028;28;20757;-72
2023/05/30 00:38:24;;;;;;;17.27;3.05;;;;;;;10.34;100.00;102148.31;5007245;28;20045;-74
2023/05/30 00:40:51;;;;;;;19.33;2.75;;;;;;;10.38;100.00;102148.31;5004045;28;20089;-75
2023/05/30 00:43:22;;;;;;;19.15;4.63;;;;;;;10.31;100.00;102160.19;5028082;28;20095;-75
2023/05/30 00:45:52;;;;;;;23.35;3.13;;;;;;;10.27;100.00;102153.78;5020779;28;20069;-75
2023/05/30 00:48:20;;;;;;;18.27;3.03;;;;;;;10.21;100.00;102158.09;5004713;28;20074;-74
2023/05/30 00:50:47;;;;;;;15.32;2.85;;;;;;;10.17;100.00;102157.25;5017831;28;20529;-73
2023/05/30 00:53:15;;;;;;;19.10;3.45;;;;;;;10.16;100.00;102155.63;5011001;28;20049;-75
2023/05/30 00:55:42;;;;;;;14.20;2.70;;;;;;;10.14;100.00;102149.66;5014279;28;20077;-75
2023/05/30 00:58:09;;;;;;;18.63;3.22;;;;;;;10.06;100.00;102147.97;5013250;28;20218;-75
2023/05/30 01:00:39;;;;;;;16.85;2.60;;;;;;;10.03;100.00;102149.53;5015349;28;20053;-73
2023/05/30 01:03:08;;;;;;;14.68;2.92;;;;;;;9.99;100.00;102157.03;5017768;28;20760;-75
2023/05/30 01:05:35;;;;;;;15.25;2.85;;;;;;;9.88;100.00;102149.72;5014258;28;20054;-74
2023/05/30 01:08:02;;;;;;;17.85;3.55;;;;;;;9.86;100.00;102152.88;5016266;28;20049;-73
2023/05/30 01:10:31;;;;;;;17.27;2.90;;;;;;;9.84;100.00;102158.03;5017130;28;20743;-75
2023/05/30 01:13:17;;;;;;;16.20;3.47;;;;;;;9.83;100.00;102158.41;5002289;28;20140;-75
2023/05/30 01:15:56;;;;;;;19.23;3.92;;;;;;;9.80;100.00;102159.16;5018407;28;20500;-75
2023/05/30 01:18:25;;;;;;;17.50;2.75;;;;;;;9.80;100.00;102159.16;5024645;28;20042;-73
2023/05/30 01:20:59;;;;;;;13.30;3.28;;;;;;;9.76;100.00;102149.97;5018438;28;20609;-73
2023/05/30 01:23:47;;;;;;;13.68;2.90;;;;;;;9.79;100.00;102157.53;5026360;28;20072;-73
2023/05/30 01:26:36;;;;;;;16.55;2.60;;;;;;;9.73;100.00;102159.06;5030082;28;20055;-73
2023/05/30 01:29:04;;;;;;;22.20;2.97;;;;;;;9.62;100.00;102164.47;5030210;28;20565;-73
2023/05/30 01:31:33;;;;;;;21.80;3.30;;;;;;;9.61;100.00;102167.63;5025712;28;20053;-73
2023/05/30 01:34:01;;;;;;;18.55;2.97;;;;;;;9.57;100.00;102158.44;5005756;28;20129;-73
2023/05/30 01:36:33;;;;;;;21.15;4.45;;;;;;;9.52;100.00;102167.13;5018040;28;20469;-73
2023/05/30 01:38:59;;;;;;;19.70;3.22;;;;;;;9.54;100.00;102165.56;5022408;28;20129;-73
2023/05/30 01:42:01;;;;;;;21.65;5.50;;;;;;;9.50;100.00;102169.47;5029483;28;20152;-73
2023/05/30 01:44:37;;;;;;;16.17;3.33;;;;;;;9.53;100.00;102169.50;5005995;28;20743;-73
2023/05/30 01:47:17;;;;;;;13.70;2.50;;;;;;;9.53;100.00;102171.47;5020663;28;20045;-73
2023/05/30 01:49:58;;;;;;;21.00;3.75;;;;;;;9.44;100.00;102171.75;5024453;28;20049;-74
2023/05/30 01:52:30;;;;;;;25.92;3.38;;;;;;;9.39;100.00;102172.06;5036195;28;20095;-73
2023/05/30 01:55:02;;;;;;;22.48;3.58;;;;;;;9.39;100.00;102174.84;5020231;28;20484;-74
2023/05/30 01:57:30;;;;;;;20.08;3.13;;;;;;;9.35;100.00;102176.78;5022312;28;20068;-73
2023/05/30 01:59:58;;;;;;;18.73;3.20;;;;;;;9.35;100.00;102184.28;5029471;28;20125;-73
2023/05/30 02:02:25;;;;;;;17.85;4.60;;;;;;;9.27;100.00;102174.25;5022004;28;20050;-73
2023/05/30 02:04:52;;;;;;;23.15;3.70;;;;;;;9.30;100.00;102182.66;5019959;28;20045;-73
2023/05/30 02:07:18;;;;;;;18.70;4.03;;;;;;;9.29;100.00;102175.50;5023093;28;20042;-73
2023/05/30 02:09:45;;;;;;;20.50;3.33;;;;;;;9.30;100.00;102179.06;5027108;28;20135;-74
2023/05/30 02:12:11;;;;;;;23.38;4.13;;;;;;;9.25;100.00;102180.19;5029422;28;20053;-73
2023/05/30 02:14:38;;;;;;;22.63;3.95;;;;;;;9.25;100.00;102179.41;5027855;28;20050;-74
2023/05/30 02:17:05;;;;;;;22.50;4.97;;;;;;;9.21;100.00;102182.13;5025179;28;20050;-73
2023/05/30 02:19:32;;;;;;;18.92;3.80;;;;;;;9.20;100.00;102183.28;5017416;28;20128;-74
2023/05/30 02:21:58;;;;;;;18.25;3.83;;;;;;;9.20;100.00;102188.84;5027905;28;20053;-74
2023/05/30 02:24:25;;;;;;;24.60;4.75;;;;;;;9.24;100.00;102186.13;5016368;28;20506;-74
2023/05/30 02:26:51;;;;;;;20.60;4.13;;;;;;;9.20;100.00;102188.84;5028064;28;20423;-73
2023/05/30 02:29:18;;;;;;;20.63;4.00;;;;;;;9.16;100.00;102203.84;5028723;28;20053;-74
2023/05/30 02:31:44;;;;;;;22.42;7.68;;;;;;;9.15;100.00;102205.03;5018330;28;20214;-74
2023/05/30 02:34:11;;;;;;;20.33;4.53;;;;;;;9.12;100.00;102194.66;5022258;28;20041;-73
2023/05/30 02:36:38;;;;;;;20.05;3.35;;;;;;;9.18;100.00;102201.47;5025785;28;20100;-74
2023/05/30 02:39:08;;;;;;;17.23;3.33;;;;;;;9.10;100.00;102203.34;5029217;28;20049;-74
2023/05/30 02:41:36;;;;;;;20.27;4.30;;;;;;;9.05;100.00;102203.66;5017652;28;20191;-75
2023/05/30 02:44:04;;;;;;;17.05;3.22;;;;;;;9.07;100.00;102217.16;5028815;28;20132;-74
2023/05/30 02:46:30;;;;;;;10.88;3.08;;;;;;;9.11;100.00;102218.81;5028644;28;20117;-75
2023/05/30 02:48:57;;;;;;;17.75;3.78;;;;;;;9.11;100.00;102218.81;5015232;28;20046;-74
2023/05/30 02:51:24;;;;;;;19.60;4.15;;;;;;;9.15;100.00;102219.66;5016559;28;20056;-74
2023/05/30 02:53:50;;;;;;;21.48;3.30;;;;;;;9.16;100.00;102220.50;5019478;28;20222;-74
2023/05/30 02:56:17;;;;;;;22.48;4.13;;;;;;;9.16;100.00;102226.03;5014120;28;20049;-73
2023/05/30 02:58:43;;;;;;;20.20;4.40;;;;;;;9.13;100.00;102218.44;5018591;28;20156;-74
2023/05/30 03:01:10;;;;;;;25.73;4.07;;;;;;;9.14;100.00;102218.09;5027636;28;20077;-75
2023/05/30 03:03:37;;;;;;;18.80;4.10;;;;;;;9.19;100.00;102216.97;5019805;28;20107;-72
2023/05/30 03:06:05;;;;;;;25.75;4.22;;;;;;;9.24;100.00;102216.63;5028553;28;20045;-74
2023/05/30 03:08:31;;;;;;;20.58;3.60;;;;;;;9.29;100.00;102225.44;5027947;28;20519;-73
2023/05/30 03:10:58;;;;;;;12.63;3.33;;;;;;;9.29;100.00;102221.88;5028075;28;20091;-73
2023/05/30 03:13:25;;;;;;;19.70;4.43;;;;;;;9.25;100.00;102221.03;5017912;28;20049;-74
2023/05/30 03:15:51;;;;;;;18.40;4.32;;;;;;;9.26;100.00;102212.31;5027972;28;20081;-74
2023/05/30 03:18:18;;;;;;;23.67;5.03;;;;;;;9.29;100.00;102221.88;5028075;28;20092;-72
2023/05/30 03:20:44;;;;;;;16.35;4.35;;;;;;;9.31;100.00;102227.84;5018288;28;20054;-74
2023/05/30 03:23:11;;;;;;;22.55;3.83;;;;;;;9.34;100.00;102224.34;5012081;28;20158;-73
2023/05/30 03:25:38;;;;;;;20.38;3.72;;;;;;;9.35;100.00;102223.16;5017802;28;20500;-71
2023/05/30 03:28:07;;;;;;;23.42;4.18;;;;;;;9.40;100.00;102220.06;5015357;28;20049;-74
2023/05/30 03:30:34;;;;;;;18.50;3.70;;;;;;;9.39;100.00;102207.38;5018335;28;20049;-73
2023/05/30 03:33:01;;;;;;;17.63;3.83;;;;;;;9.36;100.00;102214.44;5011497;28;20115;-73
2023/05/30 03:35:27;;;;;;;22.42;3.65;;;;;;;9.44;100.00;102215.38;5013481;28;20053;-73
2023/05/30 03:37:54;;;;;;;22.30;4.57;;;;;;;9.47;100.00;102215.44;5027271;28;20095;-74
2023/05/30 03:40:21;;;;;;;21.83;3.95;;;;;;;9.48;100.00;102219.00;5020431;28;20053;-73
2023/05/30 03:42:47;;;;;;;21.25;4.38;;;;;;;9.48;100.00;102221.78;5011316;28;20419;-72
2023/05/30 03:45:14;;;;;;;21.30;4.80;;;;;;;9.51;100.00;102215.47;5020490;28;20084;-75
2023/05/30 03:47:40;;;;;;;21.65;4.70;;;;;;;9.51;100.00;102218.25;5011111;28;20045;-75
2023/05/30 03:50:07;;;;;;;22.83;4.57;;;;;;;9.53;100.00;102224.25;5027590;28;20124;-73
2023/05/30 03:52:34;;;;;;;15.90;4.30;;;;;;;9.48;100.00;102214.25;5018685;28;20506;-73
2023/05/30 03:55:00;;;;;;;18.42;4.32;;;;;;;9.47;100.00;102215.44;5027228;28;20083;-74
2023/05/30 03:57:27;;;;;;;19.45;4.80;;;;;;;9.49;100.00;102226.94;5021728;28;20477;-74
2023/05/30 03:59:53;;;;;;;17.77;4.72;;;;;;;9.52;100.00;102223.44;5026615;28;20037;-73
2023/05/30 04:02:20;;;;;;;20.45;4.97;;;;;;;9.52;100.00;102223.44;5020803;28;20078;-73
2023/05/30 04:04:46;;;;;;;16.95;4.38;;;;;;;9.52;100.00;102222.66;5026179;28;20170;-74
2023/05/30 04:07:13;;;;;;;18.30;4.85;;;;;;;9.52;100.00;102220.66;5009855;28;20080;-74
2023/05/30 04:09:39;;;;;;;26.23;5.32;;;;;;;9.59;100.00;102225.53;5026857;28;20136;-74
2023/05/30 04:12:08;;;;;;;16.58;4.93;;;;;;;9.55;100.00;102221.88;5027457;28;20120;-74
2023/05/30 04:14:34;;;;;;;26.30;5.60;;;;;;;9.65;100.00;102232.34;5022635;28;20093;-74
2023/05/30 04:17:01;;;;;;;22.67;4.88;;;;;;;9.63;100.00;102235.47;5019973;28;20045;-75
2023/05/30 04:19:27;;;;;;;23.23;5.90;;;;;;;9.67;100.00;102236.38;5027415;28;20491;-74
2023/05/30 04:21:54;;;;;;;23.65;6.25;;;;;;;9.65;100.00;102232.34;5025334;28;20049;-74
2023/05/30 04:24:21;;;;;;;22.80;5.50;;;;;;;9.62;100.00;102230.31;5016130;28;20504;-74
2023/05/30 04:26:49;;;;;;;18.83;4.35;;;;;;;9.64;100.00;102236.28;5027197;28;20096;-74
2023/05/30 04:29:15;;;;;;;19.88;5.07;;;;;;;9.60;100.00;102235.44;5020681;28;20748;-74
2023/05/30 04:31:43;;;;;;;25.20;5.75;;;;;;;9.65;100.00;102244.25;5021891;28;20574;-74
2023/05/30 04:34:11;;;;;;;22.58;4.95;;;;;;;9.64;100.00;102236.28;5023486;28;20048;-75
2023/05/30 04:36:38;;;;;;;18.48;5.03;;;;;;;9.65;100.00;102238.69;5027245;28;20164;-74
2023/05/30 04:39:04;;;;;;;17.67;4.28;;;;;;;9.69;100.00;102244.31;5023956;28;20033;-72
2023/05/30 04:41:32;;;;;;;21.73;5.05;;;;;;;9.70;100.00;102246.69;5018605;28;20046;-73
2023/05/30 04:44:00;;;;;;;15.98;5.05;;;;;;;9.70;100.00;102241.13;5006435;28;20522;-74
2023/05/30 04:46:28;;;;;;;23.08;5.70;;;;;;;9.73;100.00;102247.94;5031238;28;20049;-74
2023/05/30 04:48:58;;;;;;;22.90;4.88;;;;;;;9.73;100.00;102247.94;5030479;28;20147;-74
2023/05/30 04:51:25;;;;;;;21.10;4.78;;;;;;;9.78;100.00;102253.16;5030933;28;20052;-74
2023/05/30 04:53:53;;;;;;;18.60;5.53;;;;;;;9.80;100.00;102257.16;5027664;28;20049;-75
2023/05/30 04:56:20;;;;;;;19.60;4.95;;;;;;;9.81;100.00;102253.22;5009934;28;20050;-74
2023/05/30 04:58:48;;;;;;;19.13;5.57;;;;;;;9.79;100.00;102257.53;5023700;28;20064;-75
2023/05/30 05:01:15;;;;;;;29.98;8.15;;;;;;;9.81;100.00;102252.41;5020857;28;20056;-74
2023/05/30 05:03:41;;;;;;;25.17;5.32;;;;;;;9.85;100.00;102242.97;5017859;28;20041;-74
2023/05/30 05:06:10;;;;;;;20.00;5.38;;;;;;;9.87;100.00;102259.25;5017558;28;20554;-77
2023/05/30 05:08:37;;;;;;;19.35;5.10;;;;;;;9.89;100.00;102254.91;5026861;28;20411;-73
2023/05/30 05:11:05;;;;;;;24.92;5.53;;;;;;;9.96;100.00;102259.75;5014917;28;20509;-75
2023/05/30 05:13:32;;;;;;;24.27;5.45;;;;;;;9.98;100.00;102255.47;5028938;28;20065;-76
2023/05/30 05:16:00;;;;;;;28.05;5.72;;;;;;;10.03;100.00;102259.91;5015171;28;20128;-76
2023/05/30 05:18:27;;;;;;;21.80;4.78;;;;;;;10.07;100.00;102255.97;5022386;28;20072;-76
2023/05/30 05:20:54;;;;;;;23.70;6.28;;;;;;;10.12;100.00;102257.63;5018199;28;20094;-71
2023/05/30 05:23:22;;;;;;;17.50;5.32;;;;;;;10.14;100.00;102260.84;5022974;28;20403;-75
2023/05/30 05:25:48;;;;;;;24.23;5.80;;;;;;;10.15;100.00;102250.50;5028959;28;20103;-75
2023/05/30 05:28:15;;;;;;;15.85;5.25;;;;;;;10.19;100.00;102262.50;5028205;28;20100;-76
2023/05/30 05:30:42;;;;;;;22.80;4.53;;;;;;;10.21;100.00;102260.94;5019700;28;20444;-76
2023/05/30 05:33:08;;;;;;;16.40;5.20;;;;;;;10.28;100.00;102249.88;5024280;28;20742;-76
2023/05/30 05:35:35;;;;;;;21.38;6.03;;;;;;;10.31;100.00;102265.81;5029652;28;20084;-75
2023/05/30 05:38:01;;;;;;;24.33;5.30;;;;;;;10.41;100.00;102258.78;5030223;28;20115;-74
2023/05/30 05:40:29;;;;;;;21.05;5.60;;;;;;;10.41;100.00;102248.47;5029051;28;20488;-75
2023/05/30 05:42:55;;;;;;;17.48;5.38;;;;;;;10.50;100.00;102250.94;5010126;28;20131;-75
2023/05/30 05:45:22;;;;;;;17.50;5.15;;;;;;;10.56;100.00;102261.34;5025525;28;20392;-76
2023/05/30 05:47:48;;;;;;;15.68;4.75;;;;;;;10.61;100.00;102252.66;5009918;28;20128;-73
2023/05/30 05:50:15;;;;;;;24.50;7.00;;;;;;;10.66;100.00;102257.88;5023816;28;20050;-73
2023/05/30 05:52:42;;;;;;;19.90;5.57;;;;;;;10.63;100.00;102260.63;5019293;28;20054;-74
2023/05/30 05:55:08;;;;;;;19.10;5.60;;;;;;;10.67;100.00;102253.13;5028403;28;20123;-73
2023/05/30 05:57:35;;;;;;;21.20;6.25;;;;;;;10.72;100.00;102261.91;5029399;28;20084;-73
2023/05/30 06:00:03;;;;;;;26.55;6.28;;;;;;;10.81;100.00;102261.59;5029108;28;20053;-75
2023/05/30 06:02:32;;;;;;;25.05;5.45;;;;;;;10.76;100.00;102265.53;5021604;28;20050;-73
2023/05/30 06:04:58;;;;;;;21.67;5.82;;;;;;;10.74;100.00;102267.09;5013060;28;20041;-73
2023/05/30 06:07:25;;;;;;;26.73;5.97;;;;;;;10.74;100.00;102273.44;5007979;28;20050;-73
2023/05/30 06:09:51;;;;;;;17.63;5.88;;;;;;;10.79;100.00;102267.56;5024921;28;20119;-74
2023/05/30 06:12:18;;;;;;;21.70;6.10;;;;;;;10.82;100.00;102261.22;5029258;28;20107;-75
2023/05/30 06:14:44;;;;;;;21.73;5.85;;;;;;;10.87;100.00;102263.66;5024139;28;20132;-73
2023/05/30 06:17:11;;;;;;;23.80;6.25;;;;;;;10.88;100.00;102258.91;5024890;28;20116;-73
2023/05/30 06:19:37;;;;;;;23.33;5.80;;;;;;;10.86;100.00;102262.06;5026212;28;20479;-73
2023/05/30 06:22:05;;;;;;;20.23;6.10;;;;;;;10.93;100.00;102267.69;5027474;28;20111;-75
2023/05/30 06:24:31;;;;;;;21.65;5.95;;;;;;;11.00;100.00;102264.97;5028122;28;20125;-73
2023/05/30 06:26:58;;;;;;;19.52;5.75;;;;;;;11.19;100.00;102273.09;5016656;28;20076;-73
2023/05/30 06:29:25;;;;;;;18.63;6.05;;;;;;;11.29;100.00;102266.88;5028914;28;20049;-72
2023/05/30 06:31:51;;;;;;;23.25;6.03;;;;;;;11.35;100.00;102270.88;5016273;28;20104;-73
2023/05/30 06:34:32;;;;;;;27.38;8.90;;;;;;;11.40;100.00;102273.31;5027593;28;20073;-74
2023/05/30 06:36:59;;;;;;;24.20;7.18;;;;;;;11.46;100.00;102285.69;5016956;28;20484;-74
2023/05/30 06:39:26;;;;;;;22.17;6.32;;;;;;;11.54;100.00;102278.97;5024094;28;20069;-74
2023/05/30 06:41:52;;;;;;;24.40;7.10;;;;;;;11.64;100.00;102281.06;5028760;28;20092;-74
2023/05/30 06:44:19;;;;;;;18.30;6.43;;;;;;;11.79;100.00;102284.75;5028815;28;20136;-74
2023/05/30 06:46:45;;;;;;;20.63;6.07;;;;;;;11.83;100.00;102285.56;5014560;28;20041;-74
2023/05/30 06:49:12;;;;;;;18.10;5.90;;;;;;;11.86;100.00;102282.00;5018128;28;20042;-72
2023/05/30 06:51:38;;;;;;;21.90;6.35;;;;;;;11.89;100.00;102282.00;5017037;28;20049;-73
2023/05/30 06:54:05;;;;;;;24.35;6.45;;;;;;;11.97;100.00;102285.63;5028115;28;20045;-75
2023/05/30 06:56:32;;;;;;;23.10;7.65;;;;;;;12.00;100.00;102282.06;5028597;28;20091;-73
2023/05/30 06:58:58;;;;;;;20.83;6.30;;;;;;;12.01;100.00;102281.69;5026718;28;20155;-74
2023/05/30 07:01:25;;;;;;;19.02;7.32;;;;;;;12.07;100.00;102279.31;5028160;28;20152;-73
2023/05/30 07:03:52;;;;;;;20.30;6.25;;;;;;;12.09;100.00;102280.53;5010314;28;20058;-74
2023/05/30 07:06:18;;;;;;;17.85;5.90;;;;;;;12.06;100.00;102275.72;5015830;28;20827;-74
2023/05/30 07:08:45;;;;;;;18.98;5.82;;;;;;;12.08;100.00;102280.91;5013872;28;20038;-75
2023/05/30 07:11:11;;;;;;;18.90;6.13;;;;;;;12.10;100.00;102276.56;5017510;28;20041;-75
2023/05/30 07:13:38;;;;;;;21.13;6.40;;;;;;;12.11;100.00;102272.56;5025196;28;20049;-75
2023/05/30 07:16:05;;;;;;;21.38;6.03;;;;;;;12.20;100.00;102272.22;5028174;28;20495;-75
2023/05/30 07:18:31;;;;;;;23.05;6.10;;;;;;;12.27;100.00;102273.06;5027739;28;20392;-75
2023/05/30 07:20:58;;;;;;;18.58;6.93;;;;;;;12.35;100.00;102280.25;5027358;28;20132;-75
2023/05/30 07:23:25;;;;;;;20.30;5.95;;;;;;;12.38;100.00;102279.50;5010141;28;20046;-73
2023/05/30 07:25:51;;;;;;;19.40;6.10;;;;;;;12.39;100.00;102288.69;5010936;28;20131;-75
2023/05/30 07:28:20;;;;;;;23.38;5.82;;;;;;;12.46;100.00;102283.91;5018491;28;20524;-76
2023/05/30 07:30:46;;;;;;;24.75;6.38;;;;;;;12.55;100.00;102277.19;5011099;28;20107;-74
2023/05/30 07:33:13;;;;;;;22.95;6.65;;;;;;;12.76;100.00;102288.41;5017284;28;20081;-73
2023/05/30 07:35:41;;;;;;;18.00;5.88;;;;;;;12.95;100.00;102285.22;5011348;28;20564;-74
2023/05/30 07:38:07;;;;;;;17.35;7.90;;;;;;;12.99;100.00;102286.06;5009602;28;20058;-75
2023/05/30 07:40:34;;;;;;;24.58;6.18;;;;;;;12.98;100.00;102284.44;5023837;28;20116;-75
2023/05/30 07:43:00;;;;;;;23.63;6.55;;;;;;;13.05;100.00;102285.25;5027770;28;20154;-73
2023/05/30 07:45:27;;;;;;;20.88;6.15;;;;;;;13.22;100.00;102281.69;5027602;28;20069;-74
2023/05/30 07:47:53;;;;;;;20.08;6.35;;;;;;;13.38;100.00;102286.88;5027781;28;20080;-74
2023/05/30 07:50:20;;;;;;;20.65;6.18;;;;;;;13.48;100.00;102286.09;5027722;28;20403;-73
2023/05/30 07:52:47;;;;;;;20.65;6.78;;;;;;;13.54;100.00;102285.28;5023499;28;20041;-73
2023/05/30 07:55:13;;;;;;;18.77;6.20;;;;;;;13.51;100.00;102286.09;5021242;28;20720;-73
2023/05/30 07:57:40;;;;;;;18.38;6.30;;;;;;;13.41;100.00;102286.88;5027414;28;20050;-74
2023/05/30 08:00:08;;;;;;;16.98;6.63;;;;;;;13.42;100.00;102291.28;5014219;28;20053;-73
2023/05/30 08:02:35;;;;;;;17.90;5.90;;;;;;;13.38;100.00;102284.06;5016123;28;20085;-73
2023/05/30 08:05:02;;;;;;;22.63;6.00;;;;;;;13.31;100.00;102284.88;5027154;28;20424;-74
2023/05/30 08:07:31;;;;;;;17.85;6.22;;;;;;;13.42;100.00;102284.88;5027132;28;20050;-74
2023/05/30 08:09:57;;;;;;;15.68;4.55;;;;;;;13.37;100.00;102277.69;5022370;28;20395;-74
2023/05/30 08:12:28;;;;;;;24.40;7.70;;;;;;;13.35;100.00;102277.28;5014649;28;20455;-74
2023/05/30 08:14:56;;;;;;;18.38;4.78;;;;;;;13.25;100.00;102268.91;5027003;28;20538;-75
2023/05/30 08:17:24;;;;;;;25.30;6.47;;;;;;;13.31;100.00;102281.28;5035159;28;20053;-75
2023/05/30 08:19:55;;;;;;;20.58;5.55;;;;;;;13.28;100.00;102279.28;5028745;28;20136;-75
2023/05/30 08:22:24;;;;;;;19.25;7.13;;;;;;;13.35;100.00;102277.28;5031453;28;20045;-75
2023/05/30 08:24:54;;;;;;;22.85;6.70;;;;;;;13.38;100.00;102281.28;5030936;28;20073;-75
2023/05/30 08:27:21;;;;;;;24.58;7.88;;;;;;;13.50;100.00;102283.72;5018752;28;20050;-72
2023/05/30 08:29:51;;;;;;;17.83;5.72;;;;;;;13.62;100.00;102286.88;5029497;28;20103;-73
2023/05/30 08:32:18;;;;;;;16.08;6.00;;;;;;;13.68;100.00;102276.09;5024428;28;20073;-73
2023/05/30 08:34:46;;;;;;;19.27;6.30;;;;;;;13.70;100.00;102279.28;5014463;28;20448;-73
2023/05/30 08:37:12;;;;;;;24.15;6.32;;;;;;;13.84;100.00;102279.28;5029495;28;20630;-74
2023/05/30 08:39:39;;;;;;;20.55;5.65;;;;;;;13.93;100.00;102274.03;5030934;28;20389;-74
2023/05/30 08:42:06;;;;;;;17.20;6.70;;;;;;;13.94;100.00;102276.44;5011667;28;20168;-75
2023/05/30 08:44:33;;;;;;;21.88;6.88;;;;;;;14.04;100.00;102280.44;5027111;28;20045;-74
2023/05/30 08:47:00;;;;;;;18.73;5.70;;;;;;;14.00;100.00;102279.63;5024616;28;20662;-75
2023/05/30 08:49:31;;;;;;;19.38;6.22;;;;;;;14.07;100.00;102283.19;5022594;28;20041;-72
2023/05/30 08:52:02;;;;;;;22.08;5.65;;;;;;;14.21;100.00;102263.56;5026821;28;20084;-74
2023/05/30 08:54:36;;;;;;;19.33;6.68;;;;;;;14.31;100.00;102257.13;5018834;28;20045;-73
2023/05/30 08:57:22;;;;;;;20.25;5.85;;;;;;;14.42;100.00;102263.50;5023791;28;20054;-75
2023/05/30 08:59:50;;;;;;;14.57;5.70;;;;;;;14.51;100.00;102255.47;5027757;28;20053;-74
2023/05/30 09:02:19;;;;;;;17.17;5.47;;;;;;;14.61;100.00;102262.19;5023873;28;20041;-74
2023/05/30 09:04:47;;;;;;;19.90;6.25;;;;;;;14.68;100.00;102259.34;5030563;28;20085;-74
2023/05/30 09:07:14;;;;;;;23.27;6.35;;;;;;;14.65;100.00;102254.59;5026567;28;20886;-74
2023/05/30 09:09:41;;;;;;;18.70;6.93;;;;;;;14.86;100.00;102257.28;5030372;28;20068;-76
2023/05/30 09:12:09;;;;;;;18.13;5.50;;;;;;;14.97;100.00;102255.19;5017270;28;20428;-76
2023/05/30 09:14:36;;;;;;;19.88;5.50;;;;;;;15.09;100.00;102256.69;5027063;28;20131;-72
2023/05/30 09:17:03;;;;;;;19.13;6.65;;;;;;;15.08;100.00;102257.91;5026539;28;20135;-73
2023/05/30 09:19:29;;;;;;;17.88;6.70;;;;;;;15.12;100.00;102251.06;5025788;28;20059;-72
2023/05/30 09:21:56;;;;;;;16.95;5.95;;;;;;;15.03;100.00;102245.91;5029515;28;20053;-72
2023/05/30 09:24:23;;;;;;;17.45;6.25;;;;;;;15.11;100.00;102255.06;5029611;28;20126;-75
2023/05/30 09:26:58;;;;;;;16.60;6.63;;;;;;;15.09;100.00;102259.50;5028432;28;20056;-74
2023/05/30 09:29:25;;;;;;;15.10;5.25;;;;;;;15.12;100.00;102251.06;5023075;28;20057;-72
2023/05/30 09:31:52;;;;;;;14.82;5.40;;;;;;;15.16;100.00;102256.66;5018084;28;20097;-74
2023/05/30 09:34:19;;;;;;;18.30;6.40;;;;;;;15.24;100.00;102261.78;5017520;28;20095;-71
2023/05/30 09:36:54;;;;;;;18.02;5.53;;;;;;;15.40;100.00;102259.28;5027056;28;20053;-72
2023/05/30 09:39:23;;;;;;;18.35;5.75;;;;;;;15.53;100.00;102248.34;5029499;28;20042;-72
2023/05/30 09:41:55;;;;;;;13.73;5.18;;;;;;;15.49;100.00;102253.97;5025760;28;20068;-75
2023/05/30 09:44:21;;;;;;;20.25;6.95;;;;;;;15.69;100.00;102249.38;5023057;28;20045;-75
2023/05/30 09:46:54;;;;;;;16.95;6.28;;;;;;;15.76;100.00;102252.09;5029625;28;20060;-72
2023/05/30 09:49:21;;;;;;;21.10;6.20;;;;;;;15.81;100.00;102246.06;5028027;28;20050;-73
2023/05/30 09:51:49;;;;;;;18.80;5.53;;;;;;;15.86;100.00;102247.59;5015226;28;20120;-75
2023/05/30 09:54:15;;;;;;;15.00;4.32;;;;;;;16.00;100.00;102248.22;5007501;28;20054;-73
2023/05/30 09:56:43;;;;;;;18.23;6.60;;;;;;;16.04;100.00;102248.19;5009217;28;20045;-72
2023/05/30 09:59:14;;;;;;;18.42;6.35;;;;;;;16.01;100.00;102249.03;5023008;28;20131;-73
2023/05/30 10:01:45;;;;;;;16.60;5.50;;;;;;;16.11;100.00;102246.09;5014566;28;20416;-74
2023/05/30 10:04:18;;;;;;;20.75;6.07;;;;;;;16.15;100.00;102246.84;5016724;28;20144;-74
2023/05/30 10:06:47;;;;;;;18.33;6.07;;;;;;;16.20;100.00;102254.03;5017847;28;20089;-74
2023/05/30 10:09:14;;;;;;;12.05;5.35;;;;;;;16.27;100.00;102243.50;5014019;28;20316;-73
2023/05/30 10:11:42;;;;;;;18.35;6.13;;;;;;;16.47;100.00;102241.63;5004641;28;20053;-73
2023/05/30 10:14:16;;;;;;;17.10;6.22;;;;;;;16.67;100.00;102251.00;5004484;28;20057;-72
2023/05/30 10:16:47;;;;;;;19.02;5.75;;;;;;;16.78;100.00;102246.00;5001420;28;20913;-72
2023/05/30 10:19:17;;;;;;;18.67;5.80;;;;;;;16.95;100.00;102249.78;5022195;28;20058;-72
2023/05/30 10:21:45;;;;;;;16.05;5.63;;;;;;;17.04;100.00;102247.22;5009055;28;20563;-72
2023/05/30 10:24:15;;;;;;;17.13;6.32;;;;;;;17.07;100.00;102244.34;5015704;28;20050;-72
2023/05/30 10:26:50;;;;;;;17.23;6.35;;;;;;;16.99;100.00;102234.47;5019531;28;20056;-73
2023/05/30 10:29:21;;;;;;;16.38;5.55;;;;;;;17.21;100.00;102240.53;5004362;28;20046;-72
2023/05/30 10:31:51;;;;;;;16.80;5.82;;;;;;;17.33;100.00;102240.75;5016325;28;20064;-71
2023/05/30 10:34:21;;;;;;;15.50;5.32;;;;;;;17.36;100.00;102242.69;5014145;28;20133;-73
2023/05/30 10:36:48;;;;;;;21.50;6.72;;;;;;;17.55;100.00;102237.56;5015033;28;20057;-73
2023/05/30 10:39:32;;;;;;;17.73;5.78;;;;;;;17.58;100.00;102231.06;5018040;28;20049;-72
2023/05/30 10:42:36;;;;;;;17.60;5.78;;;;;;;17.64;100.00;102224.50;5000243;28;20095;-72
2023/05/30 10:45:16;;;;;;;19.63;5.55;;;;;;;17.84;100.00;102230.97;5007815;28;20050;-73
2023/05/30 10:48:20;;;;;;;15.02;5.18;;;;;;;17.95;100.00;102227.97;5016395;28;20054;-74
2023/05/30 10:50:48;;;;;;;17.27;6.13;;;;;;;17.98;100.00;102225.06;5005396;28;20145;-74
2023/05/30 10:53:17;;;;;;;15.55;6.03;;;;;;;18.11;100.00;102223.19;5021474;28;20095;-75
2023/05/30 10:55:46;;;;;;;13.45;5.47;;;;;;;18.19;100.00;102209.78;5011968;28;20116;-76
2023/05/30 10:58:38;;;;;;;14.80;5.75;;;;;;;18.31;100.00;102212.72;5012473;28;20548;-75
2023/05/30 11:01:26;;;;;;;16.13;5.65;;;;;;;18.41;100.00;102206.06;5010193;28;20056;-73
2023/05/30 11:03:58;;;;;;;16.80;5.78;;;;;;;18.57;98.00;102208.13;5015176;28;20053;-74
2023/05/30 11:06:26;;;;;;;15.70;4.88;;;;;;;18.67;100.00;102207.84;5017937;28;20994;-74
2023/05/30 11:09:03;;;;;;;19.25;5.75;;;;;;;18.76;97.75;102201.66;5016808;28;20143;-74
2023/05/30 11:11:41;;;;;;;18.80;5.43;;;;;;;18.66;94.57;102194.22;5005967;28;20064;-74
2023/05/30 11:14:10;;;;;;;14.60;5.22;;;;;;;18.82;96.60;102191.44;5006303;28;20496;-74
2023/05/30 11:16:54;;;;;;;15.48;5.68;;;;;;;19.04;96.05;102189.69;5005017;28;20054;-73
2023/05/30 11:19:35;;;;;;;20.10;5.13;;;;;;;19.29;95.55;102182.19;5022344;28;20054;-73